Time;durP1;ratioP1;P1;durP2;ratioP2;P2;SDS_P1;SDS_P2;PMS_P1;PMS_P2;Temp;Humidity;BMP_temperature;BMP_pressure;BME280_temperature;BME280_humidity;BME280_pressure;Samples;Min_cycle;Max_cycle;Signal;HPM_P1;HPM_P2
2021/08/09 00:01:00;;;;;;;4.63;3.07;;;20.90;45.30;;;;;;5116180;28;21021;-86
2021/08/09 00:03:27;;;;;;;4.20;2.50;;;20.90;42.30;;;;;;5115620;28;20508;-86
2021/08/09 00:05:54;;;;;;;4.63;2.83;;;21.00;46.10;;;;;;5116279;28;20502;-86
2021/08/09 00:08:21;;;;;;;4.17;3.10;;;21.30;46.10;;;;;;5116144;28;20525;-86
2021/08/09 00:10:49;;;;;;;2.90;2.47;;;21.10;42.00;;;;;;5116822;28;20457;-86
2021/08/09 00:13:16;;;;;;;4.43;2.50;;;21.20;46.20;;;;;;5116367;28;20564;-86
2021/08/09 00:15:43;;;;;;;4.97;2.90;;;21.50;45.90;;;;;;5116824;28;20487;-86
2021/08/09 00:18:10;;;;;;;5.37;2.63;;;21.80;46.90;;;;;;5115883;28;20466;-85
2021/08/09 00:20:37;;;;;;;2.70;2.30;;;21.90;45.90;;;;;;5116032;28;20454;-86
2021/08/09 00:23:04;;;;;;;4.97;2.90;;;21.70;44.10;;;;;;5114809;28;20512;-86
2021/08/09 00:25:31;;;;;;;4.77;2.80;;;21.70;45.80;;;;;;5115736;28;20446;-86
2021/08/09 00:27:59;;;;;;;4.13;2.93;;;21.70;45.50;;;;;;5115184;28;20456;-86
2021/08/09 00:30:26;;;;;;;6.17;2.60;;;21.70;44.20;;;;;;5115452;28;20473;-86
2021/08/09 00:32:53;;;;;;;4.00;2.20;;;21.40;42.90;;;;;;5115371;28;20898;-85
2021/08/09 00:35:19;;;;;;;5.30;2.63;;;20.80;45.30;;;;;;5115265;28;20456;-85
2021/08/09 00:37:46;;;;;;;8.70;3.30;;;20.80;45.30;;;;;;5115069;28;20444;-86
2021/08/09 00:40:13;;;;;;;6.50;2.80;;;21.00;45.10;;;;;;5115208;28;20528;-86
2021/08/09 00:42:40;;;;;;;5.13;3.00;;;21.10;45.50;;;;;;5115418;28;20489;-86
2021/08/09 00:45:10;;;;;;;3.97;2.60;;;21.20;46.40;;;;;;5115481;28;20477;-86
2021/08/09 00:47:37;;;;;;;4.37;3.40;;;21.30;45.70;;;;;;5115073;28;21005;-86
2021/08/09 00:50:04;;;;;;;7.93;3.00;;;21.40;45.40;;;;;;5115053;28;20853;-86
2021/08/09 00:52:31;;;;;;;5.80;2.30;;;21.30;43.90;;;;;;5114803;28;20469;-86
2021/08/09 00:54:58;;;;;;;3.43;2.60;;;21.00;45.40;;;;;;5115297;28;20445;-86
2021/08/09 00:57:26;;;;;;;6.87;2.60;;;21.30;45.70;;;;;;5114582;28;20525;-87
2021/08/09 00:59:53;;;;;;;4.70;2.67;;;21.50;45.90;;;;;;5114722;28;20446;-86
2021/08/09 01:02:21;;;;;;;8.30;2.87;;;21.50;45.90;;;;;;5115007;28;20445;-86
2021/08/09 01:04:48;;;;;;;3.40;2.70;;;21.50;45.20;;;;;;5114774;28;20532;-86
2021/08/09 01:07:15;;;;;;;4.30;3.23;;;21.10;44.10;;;;;;5115154;28;21009;-86
2021/08/09 01:09:47;;;;;;;3.30;2.50;;;20.80;46.00;;;;;;5114663;28;20472;-86
2021/08/09 01:12:22;;;;;;;3.57;2.60;;;20.70;46.20;;;;;;5115344;28;20946;-86
2021/08/09 01:15:03;;;;;;;4.80;2.70;;;21.00;46.20;;;;;;5115510;28;20485;-86
2021/08/09 01:17:36;;;;;;;4.43;2.60;;;21.10;45.60;;;;;;5114877;28;20465;-86
2021/08/09 01:20:18;;;;;;;7.60;3.13;;;21.20;43.10;;;;;;5114891;28;20513;-86
2021/08/09 01:22:52;;;;;;;12.53;5.37;;;21.30;46.00;;;;;;5117373;28;20581;-86
2021/08/09 01:25:30;;;;;;;4.17;2.70;;;21.20;46.30;;;;;;5116549;28;20433;-86
2021/08/09 01:28:00;;;;;;;7.70;4.67;;;20.80;45.30;;;;;;5114846;28;20436;-86
2021/08/09 01:30:28;;;;;;;5.90;3.00;;;20.70;45.60;;;;;;5114158;28;20456;-85
2021/08/09 01:32:55;;;;;;;6.60;3.10;;;20.60;45.60;;;;;;5114267;28;21017;-86
2021/08/09 01:35:26;;;;;;;9.60;2.70;;;20.60;46.00;;;;;;5116306;28;20942;-86
2021/08/09 01:37:56;;;;;;;5.43;2.87;;;20.60;43.70;;;;;;5118336;28;20533;-85
2021/08/09 01:40:24;;;;;;;5.33;2.80;;;20.50;46.20;;;;;;5118593;28;20881;-86
2021/08/09 01:42:52;;;;;;;4.63;2.47;;;20.80;46.80;;;;;;5118581;28;20508;-86
2021/08/09 01:45:21;;;;;;;4.13;2.50;;;20.90;47.20;;;;;;5118736;28;20472;-86
2021/08/09 01:47:48;;;;;;;5.60;2.77;;;21.00;46.60;;;;;;5118962;28;20437;-86
2021/08/09 01:50:16;;;;;;;2.87;2.47;;;21.30;45.70;;;;;;5137908;27;20504;-84
2021/08/09 01:52:44;;;;;;;5.80;2.70;;;21.20;45.60;;;;;;5140634;27;20468;-86
2021/08/09 01:55:14;;;;;;;4.50;2.70;;;21.20;45.60;;;;;;5118758;28;20446;-86
2021/08/09 01:57:41;;;;;;;7.10;3.03;;;21.20;46.10;;;;;;5118852;28;20505;-86
2021/08/09 02:00:11;;;;;;;5.03;2.73;;;21.30;45.70;;;;;;5118243;28;20481;-86
2021/08/09 02:02:39;;;;;;;3.83;2.57;;;20.90;45.30;;;;;;5118241;28;20529;-86
2021/08/09 02:05:08;;;;;;;3.70;2.60;;;20.60;45.10;;;;;;5118352;28;20523;-86
2021/08/09 02:07:37;;;;;;;6.23;3.03;;;20.40;46.50;;;;;;5117916;28;20524;-86
2021/08/09 02:10:06;;;;;;;4.10;2.60;;;20.50;45.00;;;;;;5117870;28;20528;-86
2021/08/09 02:12:37;;;;;;;7.20;2.70;;;20.50;45.00;;;;;;5119336;28;20493;-86
2021/08/09 02:15:05;;;;;;;5.93;2.70;;;20.10;45.50;;;;;;5120591;28;20429;-85
2021/08/09 02:17:38;;;;;;;6.47;3.07;;;19.70;43.30;;;;;;5119856;28;20489;-86
2021/08/09 02:20:13;;;;;;;6.67;3.23;;;19.30;45.30;;;;;;5118937;28;20760;-86
2021/08/09 02:22:46;;;;;;;5.70;3.23;;;18.80;47.10;;;;;;5118180;28;20500;-85
2021/08/09 02:25:16;;;;;;;5.67;3.10;;;18.30;46.90;;;;;;5118730;28;20465;-86
2021/08/09 02:27:45;;;;;;;4.50;2.77;;;17.90;47.70;;;;;;5118662;28;20426;-86
2021/08/09 02:30:16;;;;;;;7.63;3.50;;;17.80;50.20;;;;;;5118216;28;20528;-86
2021/08/09 02:32:45;;;;;;;5.43;2.87;;;18.00;50.90;;;;;;5118139;28;20994;-86
2021/08/09 02:35:16;;;;;;;4.90;3.07;;;18.10;48.60;;;;;;5117820;28;20469;-86
2021/08/09 02:37:44;;;;;;;6.43;2.80;;;18.20;48.70;;;;;;5117166;28;20477;-86
2021/08/09 02:40:12;;;;;;;7.33;2.93;;;18.50;49.40;;;;;;5117325;28;20450;-86
2021/08/09 02:42:39;;;;;;;4.47;2.93;;;19.00;50.00;;;;;;5117253;28;20472;-86
2021/08/09 02:45:08;;;;;;;3.37;2.80;;;19.50;49.20;;;;;;5116883;28;20476;-86
2021/08/09 02:47:37;;;;;;;2.97;2.60;;;19.70;48.10;;;;;;5117592;28;20485;-86
2021/08/09 02:50:05;;;;;;;6.80;3.23;;;19.90;48.10;;;;;;5117349;28;20958;-87
2021/08/09 02:52:34;;;;;;;5.47;3.13;;;20.10;48.40;;;;;;5117489;28;20826;-86
2021/08/09 02:55:01;;;;;;;4.13;2.60;;;20.20;47.80;;;;;;5117691;28;20441;-87
2021/08/09 02:57:31;;;;;;;9.10;3.13;;;20.10;47.10;;;;;;5116715;28;20508;-86
2021/08/09 02:59:59;;;;;;;6.23;3.30;;;19.50;46.40;;;;;;5116719;28;20442;-86
2021/08/09 03:02:28;;;;;;;4.67;2.90;;;19.00;46.90;;;;;;5117412;28;20552;-86
2021/08/09 03:04:55;;;;;;;5.27;2.80;;;18.90;47.80;;;;;;5117746;28;20456;-86
2021/08/09 03:07:24;;;;;;;8.53;3.63;;;19.30;49.30;;;;;;5118408;28;20938;-87
2021/08/09 03:09:53;;;;;;;10.70;3.70;;;19.70;48.10;;;;;;5126173;28;20441;-86
2021/08/09 03:12:20;;;;;;;7.87;2.90;;;19.50;47.10;;;;;;5139189;28;20430;-85
2021/08/09 03:14:50;;;;;;;2.77;2.43;;;19.20;44.80;;;;;;5138337;28;20453;-86
2021/08/09 03:17:17;;;;;;;12.60;2.90;;;19.30;50.20;;;;;;5137148;28;20454;-86
2021/08/09 03:19:44;;;;;;;6.17;2.97;;;19.30;48.10;;;;;;5137092;28;20450;-86
2021/08/09 03:22:11;;;;;;;2.73;2.40;;;19.30;48.50;;;;;;5120546;28;20441;-86
2021/08/09 03:24:39;;;;;;;4.70;3.10;;;19.50;49.60;;;;;;5116420;28;20834;-86
2021/08/09 03:27:07;;;;;;;3.67;2.43;;;19.60;46.70;;;;;;5116298;28;20445;-86
2021/08/09 03:29:34;;;;;;;5.77;3.03;;;19.70;49.50;;;;;;5115928;28;20536;-86
2021/08/09 03:32:01;;;;;;;3.73;2.80;;;19.70;47.80;;;;;;5116266;28;20473;-86
2021/08/09 03:34:28;;;;;;;4.17;2.93;;;19.80;48.00;;;;;;5115893;28;20892;-86
2021/08/09 03:36:54;;;;;;;7.23;2.60;;;20.00;48.70;;;;;;5115853;28;20481;-86
2021/08/09 03:39:22;;;;;;;6.53;3.27;;;20.00;48.00;;;;;;5116050;28;20821;-86
2021/08/09 03:41:49;;;;;;;5.43;2.97;;;20.20;48.50;;;;;;5115624;28;20445;-87
2021/08/09 03:44:18;;;;;;;3.33;2.70;;;20.30;48.30;;;;;;5115920;28;20557;-86
2021/08/09 03:46:44;;;;;;;13.30;4.47;;;20.50;46.10;;;;;;5116103;28;20438;-86
2021/08/09 03:49:11;;;;;;;7.93;3.17;;;20.40;44.90;;;;;;5116221;28;20816;-86
2021/08/09 03:51:39;;;;;;;7.40;3.10;;;20.10;44.60;;;;;;5116095;28;20445;-86
2021/08/09 03:54:07;;;;;;;3.27;2.80;;;20.00;47.60;;;;;;5115597;28;20497;-86
2021/08/09 03:56:34;;;;;;;2.93;2.50;;;20.10;47.80;;;;;;5115719;28;20580;-86
2021/08/09 03:59:01;;;;;;;4.30;2.80;;;20.10;48.50;;;;;;5114763;28;20485;-86
2021/08/09 04:01:29;;;;;;;7.40;3.40;;;20.00;46.20;;;;;;5115530;28;20430;-86
2021/08/09 04:03:57;;;;;;;5.27;3.20;;;19.10;43.10;;;;;;5115600;28;20489;-85
2021/08/09 04:06:24;;;;;;;7.50;3.07;;;18.70;45.20;;;;;;5115036;28;20441;-86
2021/08/09 04:08:50;;;;;;;6.63;2.73;;;18.50;46.10;;;;;;5114630;28;20484;-85
2021/08/09 04:11:18;;;;;;;23.30;9.83;;;18.60;50.50;;;;;;5114963;28;20532;-85
2021/08/09 04:13:44;;;;;;;8.00;4.30;;;19.10;48.90;;;;;;5114823;28;20816;-85
2021/08/09 04:16:11;;;;;;;6.43;3.67;;;19.30;48.60;;;;;;5114405;28;20554;-85
2021/08/09 04:18:40;;;;;;;9.40;4.67;;;19.60;49.40;;;;;;5114620;28;20542;-86
2021/08/09 04:21:07;;;;;;;13.90;7.03;;;19.80;44.80;;;;;;5114510;28;20890;-86
2021/08/09 04:23:34;;;;;;;23.93;8.23;;;19.30;44.30;;;;;;5114135;28;20568;-85
2021/08/09 04:26:00;;;;;;;8.80;3.17;;;19.00;43.60;;;;;;5114478;28;20437;-85
2021/08/09 04:28:27;;;;;;;7.67;3.53;;;18.70;47.00;;;;;;5114742;28;20466;-86
2021/08/09 04:30:54;;;;;;;6.40;3.47;;;18.60;49.50;;;;;;5116221;28;20489;-86
2021/08/09 04:33:21;;;;;;;9.70;3.63;;;19.00;47.90;;;;;;5115703;28;20465;-86
2021/08/09 04:35:49;;;;;;;8.03;3.50;;;18.60;44.20;;;;;;5115252;28;20478;-85
2021/08/09 04:38:16;;;;;;;4.40;2.93;;;18.60;45.50;;;;;;5114189;28;21020;-86
2021/08/09 04:40:43;;;;;;;5.53;3.73;;;18.60;48.70;;;;;;5114608;28;20894;-86
2021/08/09 04:43:09;;;;;;;10.03;3.33;;;19.00;47.50;;;;;;5129529;28;20496;-84
2021/08/09 04:45:36;;;;;;;9.27;3.60;;;19.10;44.40;;;;;;5128073;28;20441;-85
2021/08/09 04:48:04;;;;;;;5.13;3.63;;;18.80;45.60;;;;;;5114993;28;20434;-86
2021/08/09 04:50:31;;;;;;;4.60;3.17;;;18.60;47.60;;;;;;5114016;28;20450;-86
2021/08/09 04:52:59;;;;;;;5.50;3.70;;;19.10;49.60;;;;;;5114285;28;20556;-87
2021/08/09 04:55:26;;;;;;;6.57;4.27;;;19.00;43.60;;;;;;5114253;28;20533;-86
2021/08/09 04:57:53;;;;;;;8.60;3.50;;;18.90;46.90;;;;;;5114702;28;20579;-86
2021/08/09 05:00:19;;;;;;;7.80;4.13;;;19.40;47.40;;;;;;5114409;28;20529;-86
2021/08/09 05:02:46;;;;;;;5.50;2.97;;;19.80;49.50;;;;;;5113507;28;21029;-86
2021/08/09 05:05:13;;;;;;;9.47;3.13;;;20.30;47.80;;;;;;5113513;28;20957;-86
2021/08/09 05:07:40;;;;;;;4.50;3.00;;;20.60;44.00;;;;;;5113806;28;20494;-86
2021/08/09 05:10:09;;;;;;;5.83;3.53;;;20.60;44.10;;;;;;5113711;28;20548;-86
2021/08/09 05:12:36;;;;;;;6.50;3.33;;;20.60;45.10;;;;;;5113389;28;20457;-86
2021/08/09 05:15:04;;;;;;;4.90;3.10;;;20.40;44.40;;;;;;5113990;28;20825;-87
2021/08/09 05:17:31;;;;;;;6.40;3.37;;;20.30;44.80;;;;;;5113925;28;20500;-86
2021/08/09 05:19:58;;;;;;;9.73;2.77;;;20.50;44.40;;;;;;5113663;28;21013;-86
2021/08/09 05:22:25;;;;;;;5.07;2.97;;;20.50;43.50;;;;;;5113745;28;20489;-86
2021/08/09 05:24:53;;;;;;;4.43;2.83;;;20.60;43.80;;;;;;5113723;28;20479;-86
2021/08/09 05:27:21;;;;;;;3.30;2.63;;;20.80;43.80;;;;;;5115161;28;20477;-86
2021/08/09 05:29:48;;;;;;;13.47;3.47;;;21.00;41.90;;;;;;5114129;28;20502;-86
2021/08/09 05:32:15;;;;;;;11.03;3.90;;;20.70;41.80;;;;;;5114323;28;20812;-86
2021/08/09 05:34:46;;;;;;;3.77;3.07;;;20.70;43.00;;;;;;5113231;28;20923;-86
2021/08/09 05:37:13;;;;;;;7.57;3.20;;;20.70;42.00;;;;;;5113500;28;20472;-86
2021/08/09 05:39:40;;;;;;;4.53;3.10;;;21.30;43.20;;;;;;5113400;28;20532;-86
2021/08/09 05:42:07;;;;;;;6.03;3.00;;;21.80;44.00;;;;;;5113811;28;20441;-86
2021/08/09 05:44:35;;;;;;;9.80;3.00;;;22.60;41.70;;;;;;5113781;28;20449;-86
2021/08/09 05:47:02;;;;;;;4.80;3.00;;;23.70;39.70;;;;;;5113739;28;20804;-87
2021/08/09 05:49:29;;;;;;;9.77;3.10;;;24.80;38.10;;;;;;5113638;28;20492;-86
2021/08/09 05:51:56;;;;;;;6.80;2.57;;;25.60;36.50;;;;;;5114527;28;20446;-87
2021/08/09 05:54:23;;;;;;;5.33;2.60;;;26.50;35.30;;;;;;5113745;28;20887;-87
2021/08/09 05:56:50;;;;;;;9.43;2.70;;;26.90;31.40;;;;;;5113386;28;20529;-87
2021/08/09 05:59:17;;;;;;;12.77;2.50;;;27.20;31.10;;;;;;5113382;28;20517;-87
2021/08/09 06:01:45;;;;;;;7.03;2.60;;;27.50;29.80;;;;;;5113696;28;20528;-86
2021/08/09 06:04:12;;;;;;;6.37;2.80;;;27.10;31.00;;;;;;5113395;28;20473;-87
2021/08/09 06:06:39;;;;;;;4.17;2.30;;;27.40;31.30;;;;;;5113421;28;20564;-87
2021/08/09 06:09:06;;;;;;;13.53;2.93;;;27.80;29.50;;;;;;5113977;28;20480;-87
2021/08/09 06:11:33;;;;;;;4.17;2.27;;;28.40;30.10;;;;;;5115318;28;20462;-86
2021/08/09 06:13:59;;;;;;;8.53;2.60;;;28.50;29.40;;;;;;5114913;28;20548;-86
2021/08/09 06:16:27;;;;;;;4.50;2.40;;;28.60;29.40;;;;;;5114015;28;20461;-86
2021/08/09 06:18:55;;;;;;;3.57;2.37;;;29.20;28.90;;;;;;5113760;28;20869;-86
2021/08/09 06:21:22;;;;;;;4.17;2.20;;;29.60;28.00;;;;;;5115401;28;20947;-86
2021/08/09 06:23:49;;;;;;;4.63;2.50;;;29.80;28.10;;;;;;5116445;28;20840;-86
2021/08/09 06:26:16;;;;;;;6.40;2.70;;;30.30;27.60;;;;;;5117023;28;20465;-86
2021/08/09 06:28:42;;;;;;;9.40;2.53;;;31.10;26.40;;;;;;5116608;28;20445;-86
2021/08/09 06:31:09;;;;;;;10.23;2.83;;;31.60;25.80;;;;;;5117076;28;20520;-87
2021/08/09 06:33:36;;;;;;;5.37;2.50;;;31.20;24.80;;;;;;5116753;28;20851;-86
2021/08/09 06:36:05;;;;;;;5.67;2.67;;;30.60;26.50;;;;;;5116894;28;20479;-86
2021/08/09 06:38:32;;;;;;;6.30;2.90;;;30.50;26.50;;;;;;5116974;28;20513;-86
2021/08/09 06:40:59;;;;;;;6.70;2.00;;;30.60;26.20;;;;;;5116538;28;20476;-86
2021/08/09 06:43:25;;;;;;;4.10;2.33;;;30.90;26.20;;;;;;5116189;28;21017;-86
2021/08/09 06:45:53;;;;;;;4.20;2.33;;;31.10;24.80;;;;;;5116449;28;20481;-86
2021/08/09 06:48:19;;;;;;;5.00;2.40;;;31.60;24.80;;;;;;5116509;28;20445;-86
2021/08/09 06:50:46;;;;;;;10.00;3.20;;;31.30;26.10;;;;;;5116183;28;20946;-86
2021/08/09 06:53:15;;;;;;;7.73;2.40;;;30.90;24.70;;;;;;5116232;28;20500;-86
2021/08/09 06:55:42;;;;;;;5.90;3.00;;;30.50;25.80;;;;;;5116398;28;20466;-86
2021/08/09 06:58:08;;;;;;;3.63;2.50;;;30.70;25.60;;;;;;5116259;28;20915;-86
2021/08/09 07:00:36;;;;;;;12.60;2.53;;;31.20;24.80;;;;;;5116419;28;20541;-87
2021/08/09 07:03:07;;;;;;;9.30;3.33;;;31.90;24.30;;;;;;5116194;28;20468;-86
2021/08/09 07:05:40;;;;;;;4.70;2.10;;;32.30;23.50;;;;;;5116201;28;20798;-86
2021/08/09 07:08:08;;;;;;;4.00;2.33;;;32.40;23.40;;;;;;5115237;28;20426;-86
2021/08/09 07:10:36;;;;;;;12.27;2.10;;;32.90;23.60;;;;;;5115939;28;20478;-86
2021/08/09 07:13:03;;;;;;;6.17;2.30;;;32.90;22.80;;;;;;5116154;28;20548;-86
2021/08/09 07:15:30;;;;;;;4.97;2.40;;;32.00;23.70;;;;;;5115126;28;20442;-86
2021/08/09 07:17:57;;;;;;;4.80;2.13;;;32.20;23.60;;;;;;5116111;28;20887;-86
2021/08/09 07:20:24;;;;;;;6.00;2.30;;;32.10;23.40;;;;;;5114952;28;20452;-86
2021/08/09 07:22:51;;;;;;;4.10;2.13;;;32.90;23.50;;;;;;5131833;28;20474;-85
2021/08/09 07:25:19;;;;;;;4.97;2.40;;;33.30;22.90;;;;;;5139354;28;20554;-84
2021/08/09 07:27:47;;;;;;;8.73;2.20;;;34.50;21.90;;;;;;5128630;28;20457;-86
2021/08/09 07:30:15;;;;;;;4.67;2.53;;;34.00;21.60;;;;;;5116367;28;20480;-85
2021/08/09 07:32:42;;;;;;;6.33;2.10;;;34.30;21.80;;;;;;5113518;28;20468;-86
2021/08/09 07:35:10;;;;;;;3.97;2.43;;;34.20;21.90;;;;;;5126629;28;20421;-85
2021/08/09 07:37:37;;;;;;;3.77;2.20;;;33.70;21.90;;;;;;5136237;28;20444;-85
2021/08/09 07:40:04;;;;;;;3.37;2.10;;;34.10;22.10;;;;;;5118073;28;20487;-86
2021/08/09 07:42:31;;;;;;;4.20;2.13;;;33.90;22.00;;;;;;5115778;28;20462;-87
2021/08/09 07:45:00;;;;;;;10.90;2.20;;;33.40;22.40;;;;;;5115552;28;20528;-86
2021/08/09 07:47:27;;;;;;;5.73;2.10;;;33.50;22.50;;;;;;5115784;28;20521;-86
2021/08/09 07:49:54;;;;;;;8.33;2.17;;;34.00;21.60;;;;;;5115688;28;20477;-86
2021/08/09 07:52:21;;;;;;;3.30;2.20;;;34.40;21.50;;;;;;5115420;28;20513;-86
2021/08/09 07:54:48;;;;;;;5.43;2.50;;;33.70;22.20;;;;;;5115773;28;20533;-87
2021/08/09 07:57:15;;;;;;;9.37;2.47;;;33.90;21.90;;;;;;5116009;28;20872;-86
2021/08/09 07:59:42;;;;;;;3.30;1.90;;;34.50;20.90;;;;;;5115955;28;20540;-86
2021/08/09 08:02:10;;;;;;;2.73;1.90;;;33.90;22.10;;;;;;5116710;28;20532;-85
2021/08/09 08:04:37;;;;;;;8.30;2.20;;;34.90;20.70;;;;;;5116509;28;20441;-86
2021/08/09 08:07:04;;;;;;;4.70;2.40;;;34.90;20.70;;;;;;5116129;28;20540;-87
2021/08/09 08:09:31;;;;;;;4.63;1.97;;;35.00;20.70;;;;;;5115714;28;20477;-86
2021/08/09 08:11:59;;;;;;;3.97;2.03;;;34.50;20.50;;;;;;5115519;28;20477;-86
2021/08/09 08:14:26;;;;;;;7.60;1.90;;;34.10;21.00;;;;;;5115593;28;20497;-84
2021/08/09 08:16:53;;;;;;;5.43;2.27;;;34.10;22.10;;;;;;5115787;28;20469;-84
2021/08/09 08:19:22;;;;;;;4.40;2.10;;;35.10;20.80;;;;;;5116354;28;20538;-84
2021/08/09 08:21:50;;;;;;;4.63;2.00;;;34.30;21.00;;;;;;5116395;28;20477;-83
2021/08/09 08:24:16;;;;;;;10.97;2.47;;;34.00;22.10;;;;;;5115417;28;20481;-83
2021/08/09 08:26:43;;;;;;;9.67;2.40;;;33.70;21.70;;;;;;5115384;28;20483;-83
2021/08/09 08:29:10;;;;;;;2.00;1.80;;;33.40;22.10;;;;;;5115649;28;20473;-83
2021/08/09 08:31:37;;;;;;;4.10;2.20;;;33.20;20.50;;;;;;5116176;28;20465;-83
2021/08/09 08:34:04;;;;;;;4.27;2.50;;;33.00;20.30;;;;;;5116369;28;20481;-83
2021/08/09 08:36:32;;;;;;;3.73;1.90;;;32.50;20.80;;;;;;5115988;28;20573;-83
2021/08/09 08:38:59;;;;;;;3.77;1.97;;;33.20;20.80;;;;;;5116279;28;20845;-84
2021/08/09 08:41:26;;;;;;;6.20;2.00;;;33.20;20.40;;;;;;5116324;28;20860;-84
2021/08/09 08:43:53;;;;;;;5.03;2.10;;;33.00;21.00;;;;;;5114905;28;20548;-85
2021/08/09 08:46:21;;;;;;;3.07;1.90;;;32.70;20.00;;;;;;5115712;28;20533;-84
2021/08/09 08:48:48;;;;;;;6.30;2.07;;;32.20;20.80;;;;;;5115477;28;20437;-84
2021/08/09 08:51:15;;;;;;;3.97;2.30;;;31.80;21.60;;;;;;5115791;28;20457;-84
2021/08/09 08:53:45;;;;;;;5.07;1.70;;;32.20;21.60;;;;;;5115388;28;20494;-85
2021/08/09 08:56:12;;;;;;;3.00;1.90;;;31.70;21.90;;;;;;5115781;28;20433;-84
2021/08/09 08:58:38;;;;;;;3.90;1.90;;;30.90;22.20;;;;;;5115341;28;21069;-84
2021/08/09 09:01:05;;;;;;;1.97;1.67;;;30.50;22.50;;;;;;5115171;28;20472;-84
2021/08/09 09:03:39;;;;;;;2.83;1.77;;;30.50;23.30;;;;;;5115167;28;20526;-84
2021/08/09 09:06:08;;;;;;;4.43;1.93;;;30.40;23.40;;;;;;5115051;28;20436;-84
2021/08/09 09:08:40;;;;;;;3.13;1.70;;;30.40;23.10;;;;;;5114809;28;20473;-84
2021/08/09 09:11:10;;;;;;;2.93;1.90;;;30.00;23.00;;;;;;5115814;28;20493;-83
2021/08/09 09:13:37;;;;;;;4.77;2.77;;;29.80;24.10;;;;;;5114882;28;20504;-84
2021/08/09 09:16:06;;;;;;;4.43;2.27;;;30.00;24.20;;;;;;5115593;28;20445;-84
2021/08/09 09:18:46;;;;;;;3.10;1.87;;;29.70;24.00;;;;;;5115388;28;20478;-84
2021/08/09 09:21:26;;;;;;;7.30;2.10;;;28.90;24.60;;;;;;5115820;28;20425;-84
2021/08/09 09:23:55;;;;;;;4.93;2.07;;;28.50;24.70;;;;;;5115129;28;20902;-84
2021/08/09 09:26:24;;;;;;;4.77;2.00;;;28.50;25.20;;;;;;5116398;28;20529;-83
2021/08/09 09:28:52;;;;;;;6.73;2.50;;;28.40;26.30;;;;;;5116780;28;20442;-84
2021/08/09 09:31:27;;;;;;;2.87;1.80;;;28.60;25.70;;;;;;5116589;28;20453;-84
2021/08/09 09:33:54;;;;;;;4.60;2.40;;;29.30;25.00;;;;;;5117933;28;20957;-83
2021/08/09 09:36:22;;;;;;;3.60;1.80;;;29.70;24.80;;;;;;5116272;28;20871;-84
2021/08/09 09:38:51;;;;;;;4.73;1.83;;;29.60;24.00;;;;;;5116691;28;20999;-84
2021/08/09 09:41:18;;;;;;;5.00;2.40;;;29.10;23.70;;;;;;5117341;28;20790;-84
2021/08/09 09:43:47;;;;;;;2.93;2.13;;;28.90;25.40;;;;;;5117629;28;20465;-85
2021/08/09 09:46:25;;;;;;;3.87;2.00;;;28.80;24.70;;;;;;5117371;28;20449;-84
2021/08/09 09:48:56;;;;;;;9.50;2.53;;;29.10;24.90;;;;;;5114905;28;20988;-83
2021/08/09 09:51:23;;;;;;;2.90;1.90;;;28.20;25.80;;;;;;5116189;28;20528;-84
2021/08/09 09:53:51;;;;;;;4.70;2.57;;;28.30;25.50;;;;;;5115733;28;20978;-84
2021/08/09 09:56:19;;;;;;;8.20;2.07;;;28.30;25.20;;;;;;5118040;28;20819;-84
2021/08/09 09:58:48;;;;;;;4.33;2.10;;;28.60;24.90;;;;;;5120604;28;20523;-84
2021/08/09 10:01:15;;;;;;;4.53;2.27;;;29.00;24.00;;;;;;5120314;28;20460;-83
2021/08/09 10:03:42;;;;;;;4.63;2.00;;;29.10;24.00;;;;;;5120088;28;20489;-84
2021/08/09 10:06:10;;;;;;;5.13;2.50;;;29.40;23.90;;;;;;5120140;28;20819;-84
2021/08/09 10:08:43;;;;;;;3.10;2.10;;;29.10;24.20;;;;;;5119012;28;20450;-83
2021/08/09 10:11:10;;;;;;;2.53;1.90;;;28.60;25.70;;;;;;5118365;28;20910;-84
2021/08/09 10:13:39;;;;;;;5.30;2.37;;;28.80;25.20;;;;;;5119862;28;20469;-83
2021/08/09 10:16:09;;;;;;;3.63;1.80;;;29.10;24.60;;;;;;5118566;28;20449;-84
2021/08/09 10:18:38;;;;;;;3.63;2.17;;;29.40;24.20;;;;;;5118501;28;20526;-84
2021/08/09 10:21:06;;;;;;;8.73;2.10;;;29.40;24.50;;;;;;5119428;28;20444;-84
2021/08/09 10:23:42;;;;;;;5.67;2.67;;;29.80;24.10;;;;;;5118622;28;20513;-84
2021/08/09 10:26:11;;;;;;;3.83;1.83;;;30.00;23.90;;;;;;5120839;28;20820;-82
2021/08/09 10:29:07;;;;;;;3.30;2.03;;;29.80;23.70;;;;;;5129822;28;20433;-82
2021/08/09 10:31:39;;;;;;;4.90;2.20;;;30.10;24.30;;;;;;5122551;28;20426;-83
2021/08/09 10:34:07;;;;;;;4.70;2.00;;;29.60;24.40;;;;;;5118988;28;20496;-83
2021/08/09 10:37:07;;;;;;;1.87;1.73;;;29.70;24.00;;;;;;5118959;28;20476;-84
2021/08/09 10:39:54;;;;;;;7.33;2.30;;;29.20;25.10;;;;;;5118980;28;20538;-84
2021/08/09 10:42:39;;;;;;;6.93;2.40;;;28.60;24.90;;;;;;5119166;28;20500;-85
2021/08/09 10:45:09;;;;;;;3.93;2.23;;;29.00;25.30;;;;;;5118321;28;20437;-84
2021/08/09 10:47:54;;;;;;;2.37;1.70;;;28.90;24.90;;;;;;5118377;28;20810;-84
2021/08/09 10:50:49;;;;;;;5.47;2.57;;;29.00;24.70;;;;;;5118536;28;20422;-84
2021/08/09 10:53:40;;;;;;;4.87;2.33;;;29.20;23.70;;;;;;5100493;28;20475;-83
2021/08/09 10:56:07;;;;;;;4.03;1.83;;;29.60;24.00;;;;;;5117648;28;20477;-83
2021/08/09 10:58:56;;;;;;;5.40;1.90;;;29.20;24.50;;;;;;5118317;28;20486;-83
2021/08/09 11:01:24;;;;;;;4.30;2.10;;;29.10;23.20;;;;;;5118362;28;20418;-83
2021/08/09 11:04:15;;;;;;;1.93;1.90;;;29.70;23.70;;;;;;5117234;28;20978;-83
2021/08/09 11:06:45;;;;;;;5.70;1.97;;;29.60;23.30;;;;;;5117647;28;20469;-83
2021/08/09 11:09:38;;;;;;;5.30;2.10;;;29.50;23.30;;;;;;5118049;28;20449;-83
2021/08/09 11:12:08;;;;;;;3.20;2.10;;;29.20;23.70;;;;;;5116692;28;20445;-83
2021/08/09 11:15:10;;;;;;;6.30;2.20;;;29.50;25.10;;;;;;5116290;28;20533;-84
2021/08/09 11:17:46;;;;;;;10.27;3.17;;;29.70;24.40;;;;;;5116761;28;20437;-84
2021/08/09 11:20:16;;;;;;;2.50;1.93;;;29.70;24.00;;;;;;5116404;28;20471;-84
2021/08/09 11:22:45;;;;;;;2.43;1.97;;;29.30;22.70;;;;;;5117844;28;20986;-83
2021/08/09 11:25:25;;;;;;;5.77;2.00;;;29.10;23.70;;;;;;5118494;28;20895;-83
2021/08/09 11:28:07;;;;;;;2.60;1.90;;;29.10;23.30;;;;;;5127340;28;20570;-83
2021/08/09 11:30:46;;;;;;;5.73;1.80;;;29.30;24.30;;;;;;5137662;28;20444;-83
2021/08/09 11:33:28;;;;;;;8.60;2.10;;;29.20;24.30;;;;;;5126892;28;20468;-83
2021/08/09 11:35:58;;;;;;;5.10;2.00;;;29.30;23.80;;;;;;5118397;28;20436;-83
2021/08/09 11:38:25;;;;;;;3.10;2.10;;;29.60;23.50;;;;;;5118221;28;20523;-83
2021/08/09 11:40:54;;;;;;;7.53;2.03;;;29.80;23.00;;;;;;5117275;28;20486;-84
2021/08/09 11:43:26;;;;;;;6.77;2.03;;;29.80;22.90;;;;;;5117535;28;20857;-84
2021/08/09 11:45:55;;;;;;;3.20;1.83;;;29.70;22.90;;;;;;5117790;28;20454;-84
2021/08/09 11:48:29;;;;;;;4.03;2.10;;;29.40;23.20;;;;;;5118587;28;20481;-84
2021/08/09 11:51:00;;;;;;;6.03;2.27;;;29.60;23.10;;;;;;5119571;28;20500;-84
2021/08/09 11:53:28;;;;;;;4.13;2.13;;;29.40;23.90;;;;;;5116423;28;20551;-84
2021/08/09 11:56:16;;;;;;;3.40;2.33;;;28.70;24.10;;;;;;5116743;28;20481;-84
2021/08/09 11:58:43;;;;;;;5.17;2.07;;;29.20;23.70;;;;;;5110741;28;20524;-84
2021/08/09 12:01:18;;;;;;;4.20;2.00;;;29.50;22.50;;;;;;5116731;28;20461;-84
2021/08/09 12:04:01;;;;;;;3.23;2.00;;;29.20;23.70;;;;;;5117044;28;20496;-84
2021/08/09 12:06:30;;;;;;;2.27;1.77;;;29.60;24.00;;;;;;5115946;28;20438;-84
2021/08/09 12:08:59;;;;;;;3.93;2.10;;;30.00;23.40;;;;;;5116790;28;20441;-84
2021/08/09 12:11:27;;;;;;;4.73;2.47;;;30.10;22.90;;;;;;5117912;28;20446;-84
2021/08/09 12:14:09;;;;;;;6.53;2.23;;;30.20;22.40;;;;;;5117000;28;20454;-84
2021/08/09 12:16:51;;;;;;;2.70;2.07;;;29.60;24.00;;;;;;5116823;28;20481;-84
2021/08/09 12:19:20;;;;;;;6.40;2.63;;;29.80;24.00;;;;;;5115644;28;20571;-84
2021/08/09 12:21:49;;;;;;;3.90;2.00;;;29.90;23.20;;;;;;5116922;28;20457;-84
2021/08/09 12:24:23;;;;;;;2.90;1.97;;;29.70;23.80;;;;;;5116755;28;20469;-84
2021/08/09 12:26:53;;;;;;;5.20;2.17;;;29.90;24.10;;;;;;5116269;28;20432;-84
2021/08/09 12:29:22;;;;;;;2.27;1.57;;;30.10;25.20;;;;;;5116942;28;20505;-83
2021/08/09 12:31:52;;;;;;;2.70;1.97;;;30.20;22.60;;;;;;5116513;28;20965;-84
2021/08/09 12:34:22;;;;;;;3.20;1.87;;;30.20;24.30;;;;;;5116834;28;20495;-83
2021/08/09 12:36:51;;;;;;;5.60;2.20;;;30.10;23.10;;;;;;5117321;28;20895;-83
2021/08/09 12:39:33;;;;;;;2.60;2.07;;;30.00;23.60;;;;;;5119973;28;20493;-84
2021/08/09 12:42:16;;;;;;;5.30;2.20;;;29.70;24.00;;;;;;5129387;28;20454;-83
2021/08/09 12:44:43;;;;;;;4.70;2.20;;;29.40;23.90;;;;;;5129034;28;20430;-82
2021/08/09 12:47:11;;;;;;;5.47;2.50;;;29.50;23.90;;;;;;5129074;28;20926;-83
2021/08/09 12:49:38;;;;;;;6.30;2.20;;;29.70;24.50;;;;;;5129769;28;21016;-81
2021/08/09 12:52:07;;;;;;;2.50;2.30;;;30.00;24.10;;;;;;5123874;28;20538;-83
2021/08/09 12:54:34;;;;;;;3.17;1.80;;;30.10;24.20;;;;;;5119942;28;20457;-82
2021/08/09 12:57:01;;;;;;;4.10;2.27;;;30.20;23.50;;;;;;5119893;28;20473;-82